BAW456 YSSY-YBBN
Flight info
| Callsign | BAW456 |
|---|---|
| Flight time | N/A |
| Altitude | 37000 |
| Route | GROOK DCT OLSEM H252 UPNEX H140 MATLA/N0464F350 H140 IDNER H66 BLAKA |
| Aircraft | B77W/H-SDE1E2E3FGHIJ2J3J4J5M1RWXY/LB1D1 |
Departure
| Time | 2026-04-23 08:17 |
|---|---|
| Airport | Sydney Kingsford Smith International Airport (YSSY) |
Arrival
| Time | N/A |
|---|---|
| Airport | Brisbane International Airport (YBBN) |
| Time | Latitude | Longitude | Altitude | Speed | Heading |
|---|---|---|---|---|---|
| 2026-04-23 07:25 | -33.93600 | 151.17679 | 35 ft | 0 kts | 76° |
| 2026-04-23 08:09 | -33.93603 | 151.17667 | 34 ft | 2 kts | 74° |
| 2026-04-23 08:09 | -33.93608 | 151.17648 | 32 ft | 2 kts | 68° |
| 2026-04-23 08:10 | -33.93616 | 151.17630 | 32 ft | 2 kts | 37° |
| 2026-04-23 08:10 | -33.93630 | 151.17626 | 31 ft | 1 kts | 342° |
| 2026-04-23 08:10 | -33.93632 | 151.17626 | 31 ft | 0 kts | 340° |
| 2026-04-23 08:13 | -33.93620 | 151.17622 | 31 ft | 6 kts | 344° |
| 2026-04-23 08:13 | -33.93540 | 151.17600 | 32 ft | 18 kts | 348° |
| 2026-04-23 08:13 | -33.93489 | 151.17584 | 32 ft | 0 kts | 338° |
| 2026-04-23 08:14 | -33.93476 | 151.17574 | 31 ft | 4 kts | 320° |
| 2026-04-23 08:14 | -33.93463 | 151.17543 | 27 ft | 5 kts | 281° |
| 2026-04-23 08:14 | -33.93467 | 151.17493 | 29 ft | 0 kts | 257° |
| 2026-04-23 08:15 | -33.93468 | 151.17485 | 27 ft | 4 kts | 257° |
| 2026-04-23 08:15 | -33.93496 | 151.17374 | 23 ft | 20 kts | 242° |
| 2026-04-23 08:16 | -33.93552 | 151.17322 | 25 ft | 3 kts | 183° |
| 2026-04-23 08:16 | -33.93571 | 151.17326 | 22 ft | 0 kts | 170° |
| 2026-04-23 08:16 | -33.93688 | 151.17355 | 20 ft | 61 kts | 167° |
| 2026-04-23 08:16 | -33.94518 | 151.17570 | 32 ft | 181 kts | 167° |
| 2026-04-23 08:17 | -33.95990 | 151.17935 | 808 ft | 235 kts | 167° |
| 2026-04-23 08:17 | -33.97565 | 151.18252 | 2764 ft | 235 kts | 176° |
| 2026-04-23 08:17 | -33.99233 | 151.18118 | 3967 ft | 247 kts | 184° |
| 2026-04-23 08:17 | -34.00978 | 151.17849 | 4716 ft | 254 kts | 184° |
| 2026-04-23 08:18 | -34.02751 | 151.17595 | 5017 ft | 258 kts | 180° |
| 2026-04-23 08:18 | -34.04514 | 151.17951 | 5014 ft | 258 kts | 159° |
| 2026-04-23 08:18 | -34.06205 | 151.18641 | 5009 ft | 262 kts | 161° |
| 2026-04-23 08:18 | -34.07945 | 151.19253 | 4999 ft | 259 kts | 163° |
| 2026-04-23 08:19 | -34.09679 | 151.19838 | 4991 ft | 257 kts | 163° |
| 2026-04-23 08:19 | -34.11386 | 151.20474 | 4986 ft | 254 kts | 153° |
| 2026-04-23 08:19 | -34.12768 | 151.21785 | 5008 ft | 256 kts | 128° |
| 2026-04-23 08:19 | -34.13622 | 151.23660 | 4995 ft | 255 kts | 109° |
| 2026-04-23 08:20 | -34.13909 | 151.25776 | 4990 ft | 259 kts | 89° |
| 2026-04-23 08:20 | -34.13532 | 151.27932 | 5008 ft | 273 kts | 68° |
| 2026-04-23 08:20 | -34.12476 | 151.29816 | 4993 ft | 276 kts | 45° |
| 2026-04-23 08:20 | -34.10862 | 151.31011 | 4989 ft | 273 kts | 22° |
| 2026-04-23 08:21 | -34.08991 | 151.31409 | 4987 ft | 275 kts | 359° |
| 2026-04-23 08:21 | -34.07198 | 151.30694 | 4988 ft | 276 kts | 323° |
| 2026-04-23 08:21 | -34.05835 | 151.29061 | 5006 ft | 279 kts | 309° |
| 2026-04-23 08:21 | -34.04636 | 151.27203 | 5194 ft | 281 kts | 307° |
| 2026-04-23 08:22 | -34.03460 | 151.25310 | 6113 ft | 285 kts | 308° |
| 2026-04-23 08:22 | -34.02133 | 151.23545 | 7234 ft | 287 kts | 317° |
| 2026-04-23 08:22 | -34.00559 | 151.22045 | 8248 ft | 291 kts | 328° |
| 2026-04-23 08:22 | -33.98769 | 151.20899 | 9200 ft | 294 kts | 339° |
| 2026-04-23 08:23 | -33.96831 | 151.20115 | 9860 ft | 298 kts | 345° |
| 2026-04-23 08:23 | -33.94812 | 151.19432 | 9990 ft | 305 kts | 354° |
| 2026-04-23 08:23 | -33.92736 | 151.19712 | 10003 ft | 301 kts | 26° |
| 2026-04-23 08:23 | -33.91108 | 151.21186 | 10008 ft | 290 kts | 53° |
| 2026-04-23 08:24 | -33.89944 | 151.23154 | 10012 ft | 288 kts | 60° |
| 2026-04-23 08:24 | -33.88852 | 151.25175 | 10004 ft | 287 kts | 59° |
| 2026-04-23 08:24 | -33.87722 | 151.27159 | 9990 ft | 287 kts | 57° |
| 2026-04-23 08:24 | -33.86541 | 151.29107 | 10001 ft | 287 kts | 56° |
| 2026-04-23 08:25 | -33.85325 | 151.31013 | 9989 ft | 287 kts | 54° |
| 2026-04-23 08:25 | -33.84081 | 151.32895 | 10009 ft | 287 kts | 54° |
| 2026-04-23 08:25 | -33.82818 | 151.34764 | 10543 ft | 288 kts | 53° |
| 2026-04-23 08:25 | -33.81547 | 151.36618 | 11462 ft | 293 kts | 53° |
| 2026-04-23 08:26 | -33.80227 | 151.38526 | 12438 ft | 297 kts | 53° |
| 2026-04-23 08:26 | -33.78885 | 151.40453 | 13422 ft | 301 kts | 53° |
| 2026-04-23 08:26 | -33.77526 | 151.42398 | 14385 ft | 306 kts | 53° |
| 2026-04-23 08:26 | -33.76165 | 151.44341 | 15247 ft | 311 kts | 53° |
| 2026-04-23 08:27 | -33.74756 | 151.46350 | 16036 ft | 321 kts | 53° |
| 2026-04-23 08:27 | -33.73255 | 151.48495 | 16314 ft | 349 kts | 53° |
| 2026-04-23 08:27 | -33.71631 | 151.50812 | 16562 ft | 376 kts | 53° |
| 2026-04-23 08:27 | -33.69898 | 151.53274 | 17123 ft | 392 kts | 53° |
| 2026-04-23 08:28 | -33.68112 | 151.55805 | 17911 ft | 402 kts | 53° |
| 2026-04-23 08:28 | -33.66820 | 151.57632 | 18545 ft | 407 kts | 52° |
| 2026-04-23 08:29 | -33.65795 | 151.58988 | 18987 ft | 411 kts | 49° |
| 2026-04-23 08:29 | -33.63665 | 151.61330 | 19832 ft | 418 kts | 42° |
| 2026-04-23 08:29 | -33.61292 | 151.63392 | 20687 ft | 424 kts | 36° |
| 2026-04-23 08:30 | -33.58792 | 151.65312 | 21512 ft | 429 kts | 35° |
| 2026-04-23 08:30 | -33.56263 | 151.67263 | 22299 ft | 434 kts | 36° |
| 2026-04-23 08:30 | -33.53717 | 151.69259 | 23052 ft | 440 kts | 36° |
| 2026-04-23 08:30 | -33.51082 | 151.71205 | 23774 ft | 448 kts | 31° |